CheckWX is a tool to help pilots better visualize weather data.  It is not intended as a substitute for an official pre-flight weather briefing.

17:41:43 UTC

EDDB METAR
Berlin-Schönefeld International Airport
Berlin, Germany
Current

22 mins ago

EDDB 241720Z 31008KT CAVOK 09/01 Q1021 NOSIG
Observed
Mar-24 @ 17:20 UTC
Wind
  • 310° at 8 KTS
Visibility
10,000+ meters
Flight Rules
VFR
Cloud Levels
  • Clear skies
Temperature
C / 48°F
Dewpoint
C / 34°F
Humidity
58%
Altimeter
30.15" Hg
Pressure
1020.92 hPa
Previous

52 mins ago

EDDB 241650Z 33008KT CAVOK 10/00 Q1021 NOSIG
Observed
Mar-24 @ 16:50 UTC
Wind
  • 330° at 8 KTS
Visibility
10,000+ meters
Flight Rules
VFR
Cloud Levels
  • Clear skies
Temperature
10°C / 50°F
Dewpoint
C / 32°F
Humidity
50%
Altimeter
30.15" Hg
Pressure
1020.92 hPa
Previous

1 hour ago

EDDB 241620Z 32009KT CAVOK 10/00 Q1021 NOSIG
Observed
Mar-24 @ 16:20 UTC
Wind
  • 320° at 9 KTS
Visibility
10,000+ meters
Flight Rules
VFR
Cloud Levels
  • Clear skies
Temperature
10°C / 50°F
Dewpoint
C / 32°F
Humidity
50%
Altimeter
30.15" Hg
Pressure
1020.92 hPa